sensor_id;sensor_type;location;lat;lon;timestamp;P1;durP1;ratioP1;P2;durP2;ratioP2
58372;SDS011;44177;43.356;27.672;2023-08-06T00:02:12;20.17;;;13.60;;
58372;SDS011;44177;43.356;27.672;2023-08-06T00:04:38;20.73;;;13.73;;
58372;SDS011;44177;43.356;27.672;2023-08-06T00:07:04;18.67;;;14.18;;
58372;SDS011;44177;43.356;27.672;2023-08-06T00:09:29;17.23;;;13.30;;
58372;SDS011;44177;43.356;27.672;2023-08-06T00:11:55;17.08;;;14.05;;
58372;SDS011;44177;43.356;27.672;2023-08-06T00:14:21;20.10;;;14.48;;
58372;SDS011;44177;43.356;27.672;2023-08-06T00:16:46;19.58;;;14.13;;
58372;SDS011;44177;43.356;27.672;2023-08-06T00:19:12;20.83;;;14.30;;
58372;SDS011;44177;43.356;27.672;2023-08-06T00:21:37;20.02;;;13.40;;
58372;SDS011;44177;43.356;27.672;2023-08-06T00:24:03;20.67;;;14.57;;
58372;SDS011;44177;43.356;27.672;2023-08-06T00:26:28;17.15;;;13.80;;
58372;SDS011;44177;43.356;27.672;2023-08-06T00:28:54;22.52;;;13.38;;
58372;SDS011;44177;43.356;27.672;2023-08-06T00:31:19;21.52;;;14.13;;
58372;SDS011;44177;43.356;27.672;2023-08-06T00:33:45;17.33;;;13.15;;
58372;SDS011;44177;43.356;27.672;2023-08-06T00:36:11;20.10;;;13.43;;
58372;SDS011;44177;43.356;27.672;2023-08-06T00:38:36;17.05;;;13.40;;
58372;SDS011;44177;43.356;27.672;2023-08-06T00:41:02;20.50;;;13.60;;
58372;SDS011;44177;43.356;27.672;2023-08-06T00:43:27;20.65;;;13.93;;
58372;SDS011;44177;43.356;27.672;2023-08-06T00:45:53;19.92;;;14.23;;
58372;SDS011;44177;43.356;27.672;2023-08-06T00:48:19;19.70;;;15.00;;
58372;SDS011;44177;43.356;27.672;2023-08-06T00:50:45;21.35;;;13.35;;
58372;SDS011;44177;43.356;27.672;2023-08-06T00:53:11;21.80;;;14.40;;
58372;SDS011;44177;43.356;27.672;2023-08-06T00:55:37;18.08;;;13.23;;
58372;SDS011;44177;43.356;27.672;2023-08-06T00:58:03;16.80;;;12.45;;
58372;SDS011;44177;43.356;27.672;2023-08-06T01:00:29;19.75;;;13.32;;
58372;SDS011;44177;43.356;27.672;2023-08-06T01:02:55;21.15;;;13.52;;
58372;SDS011;44177;43.356;27.672;2023-08-06T01:05:21;19.85;;;13.82;;
58372;SDS011;44177;43.356;27.672;2023-08-06T01:10:40;19.92;;;12.85;;
58372;SDS011;44177;43.356;27.672;2023-08-06T01:13:10;22.52;;;13.65;;
58372;SDS011;44177;43.356;27.672;2023-08-06T01:15:46;20.52;;;13.73;;
58372;SDS011;44177;43.356;27.672;2023-08-06T01:18:15;20.08;;;13.75;;
58372;SDS011;44177;43.356;27.672;2023-08-06T01:20:41;19.38;;;13.40;;
58372;SDS011;44177;43.356;27.672;2023-08-06T01:23:07;21.42;;;14.30;;
58372;SDS011;44177;43.356;27.672;2023-08-06T01:25:39;19.60;;;13.23;;
58372;SDS011;44177;43.356;27.672;2023-08-06T01:28:22;24.33;;;14.18;;
58372;SDS011;44177;43.356;27.672;2023-08-06T01:30:58;21.90;;;13.35;;
58372;SDS011;44177;43.356;27.672;2023-08-06T01:33:27;22.35;;;13.85;;
58372;SDS011;44177;43.356;27.672;2023-08-06T01:35:55;20.08;;;13.85;;
58372;SDS011;44177;43.356;27.672;2023-08-06T01:38:22;19.40;;;13.52;;
58372;SDS011;44177;43.356;27.672;2023-08-06T01:40:49;21.10;;;12.82;;
58372;SDS011;44177;43.356;27.672;2023-08-06T01:43:15;20.33;;;13.13;;
58372;SDS011;44177;43.356;27.672;2023-08-06T01:45:40;20.05;;;13.82;;
58372;SDS011;44177;43.356;27.672;2023-08-06T01:48:06;17.17;;;13.10;;
58372;SDS011;44177;43.356;27.672;2023-08-06T01:50:32;24.35;;;14.70;;
58372;SDS011;44177;43.356;27.672;2023-08-06T01:52:57;22.77;;;14.25;;
58372;SDS011;44177;43.356;27.672;2023-08-06T01:55:23;22.45;;;13.65;;
58372;SDS011;44177;43.356;27.672;2023-08-06T01:57:48;18.05;;;13.90;;
58372;SDS011;44177;43.356;27.672;2023-08-06T02:00:14;18.02;;;13.85;;
58372;SDS011;44177;43.356;27.672;2023-08-06T02:02:39;24.02;;;14.05;;
58372;SDS011;44177;43.356;27.672;2023-08-06T02:05:06;18.77;;;12.68;;
58372;SDS011;44177;43.356;27.672;2023-08-06T02:07:32;19.50;;;12.23;;
58372;SDS011;44177;43.356;27.672;2023-08-06T02:09:57;19.08;;;12.93;;
58372;SDS011;44177;43.356;27.672;2023-08-06T02:12:23;19.08;;;12.35;;
58372;SDS011;44177;43.356;27.672;2023-08-06T02:14:48;16.30;;;11.90;;
58372;SDS011;44177;43.356;27.672;2023-08-06T02:17:14;18.40;;;12.75;;
58372;SDS011;44177;43.356;27.672;2023-08-06T02:19:39;18.00;;;12.15;;
58372;SDS011;44177;43.356;27.672;2023-08-06T02:22:05;14.52;;;12.02;;
58372;SDS011;44177;43.356;27.672;2023-08-06T02:24:31;18.75;;;12.90;;
58372;SDS011;44177;43.356;27.672;2023-08-06T02:26:57;19.58;;;12.68;;
58372;SDS011;44177;43.356;27.672;2023-08-06T02:29:22;20.85;;;13.07;;
58372;SDS011;44177;43.356;27.672;2023-08-06T02:31:48;20.05;;;14.23;;
58372;SDS011;44177;43.356;27.672;2023-08-06T02:34:13;17.33;;;12.85;;
58372;SDS011;44177;43.356;27.672;2023-08-06T02:36:39;16.25;;;12.13;;
58372;SDS011;44177;43.356;27.672;2023-08-06T02:39:04;19.83;;;14.43;;
58372;SDS011;44177;43.356;27.672;2023-08-06T02:41:30;19.00;;;13.88;;
58372;SDS011;44177;43.356;27.672;2023-08-06T02:43:55;20.75;;;14.38;;
58372;SDS011;44177;43.356;27.672;2023-08-06T02:46:21;19.10;;;14.43;;
58372;SDS011;44177;43.356;27.672;2023-08-06T02:48:46;21.27;;;13.70;;
58372;SDS011;44177;43.356;27.672;2023-08-06T02:51:12;21.92;;;14.20;;
58372;SDS011;44177;43.356;27.672;2023-08-06T02:53:37;17.73;;;13.70;;
58372;SDS011;44177;43.356;27.672;2023-08-06T02:56:03;24.38;;;13.95;;
58372;SDS011;44177;43.356;27.672;2023-08-06T02:58:28;18.60;;;13.68;;
58372;SDS011;44177;43.356;27.672;2023-08-06T03:01:04;20.20;;;14.25;;
58372;SDS011;44177;43.356;27.672;2023-08-06T03:03:31;17.83;;;13.98;;
58372;SDS011;44177;43.356;27.672;2023-08-06T03:05:56;22.75;;;13.90;;
58372;SDS011;44177;43.356;27.672;2023-08-06T03:08:22;17.98;;;13.32;;
58372;SDS011;44177;43.356;27.672;2023-08-06T03:10:49;16.17;;;13.05;;
58372;SDS011;44177;43.356;27.672;2023-08-06T03:13:15;18.63;;;13.20;;
58372;SDS011;44177;43.356;27.672;2023-08-06T03:15:51;22.95;;;14.10;;
58372;SDS011;44177;43.356;27.672;2023-08-06T03:18:20;18.27;;;13.70;;
58372;SDS011;44177;43.356;27.672;2023-08-06T03:20:46;21.10;;;14.98;;
58372;SDS011;44177;43.356;27.672;2023-08-06T03:23:11;24.23;;;15.27;;
58372;SDS011;44177;43.356;27.672;2023-08-06T03:25:37;22.40;;;15.85;;
58372;SDS011;44177;43.356;27.672;2023-08-06T03:28:03;18.88;;;14.50;;
58372;SDS011;44177;43.356;27.672;2023-08-06T03:30:28;20.25;;;14.38;;
58372;SDS011;44177;43.356;27.672;2023-08-06T03:32:54;24.27;;;15.55;;
58372;SDS011;44177;43.356;27.672;2023-08-06T03:35:19;20.40;;;14.88;;
58372;SDS011;44177;43.356;27.672;2023-08-06T03:37:45;24.55;;;16.30;;
58372;SDS011;44177;43.356;27.672;2023-08-06T03:40:11;21.05;;;14.88;;
58372;SDS011;44177;43.356;27.672;2023-08-06T03:42:36;26.10;;;16.63;;
58372;SDS011;44177;43.356;27.672;2023-08-06T03:45:02;23.58;;;16.20;;
58372;SDS011;44177;43.356;27.672;2023-08-06T03:47:28;27.00;;;16.83;;
58372;SDS011;44177;43.356;27.672;2023-08-06T03:49:54;22.90;;;16.10;;
58372;SDS011;44177;43.356;27.672;2023-08-06T03:52:19;22.63;;;16.25;;
58372;SDS011;44177;43.356;27.672;2023-08-06T03:54:45;24.05;;;16.55;;
58372;SDS011;44177;43.356;27.672;2023-08-06T03:57:10;25.33;;;15.98;;
58372;SDS011;44177;43.356;27.672;2023-08-06T03:59:36;24.90;;;16.23;;
58372;SDS011;44177;43.356;27.672;2023-08-06T04:02:01;19.88;;;15.02;;
58372;SDS011;44177;43.356;27.672;2023-08-06T04:04:27;21.35;;;14.93;;
58372;SDS011;44177;43.356;27.672;2023-08-06T04:06:53;18.77;;;14.05;;
58372;SDS011;44177;43.356;27.672;2023-08-06T04:09:18;18.08;;;13.25;;
58372;SDS011;44177;43.356;27.672;2023-08-06T04:11:44;23.85;;;14.95;;
58372;SDS011;44177;43.356;27.672;2023-08-06T04:14:09;21.33;;;13.15;;
58372;SDS011;44177;43.356;27.672;2023-08-06T04:16:35;20.70;;;13.02;;
58372;SDS011;44177;43.356;27.672;2023-08-06T04:19:00;18.10;;;13.18;;
58372;SDS011;44177;43.356;27.672;2023-08-06T04:21:26;19.90;;;14.32;;
58372;SDS011;44177;43.356;27.672;2023-08-06T04:23:51;18.73;;;12.90;;
58372;SDS011;44177;43.356;27.672;2023-08-06T04:26:17;18.95;;;13.20;;
58372;SDS011;44177;43.356;27.672;2023-08-06T04:28:43;20.13;;;12.30;;
58372;SDS011;44177;43.356;27.672;2023-08-06T04:31:08;17.70;;;12.45;;
58372;SDS011;44177;43.356;27.672;2023-08-06T04:33:34;24.52;;;13.02;;
58372;SDS011;44177;43.356;27.672;2023-08-06T04:35:59;16.63;;;12.48;;
58372;SDS011;44177;43.356;27.672;2023-08-06T04:38:25;18.05;;;12.23;;
58372;SDS011;44177;43.356;27.672;2023-08-06T04:40:51;17.15;;;12.10;;
58372;SDS011;44177;43.356;27.672;2023-08-06T04:43:17;15.95;;;11.60;;
58372;SDS011;44177;43.356;27.672;2023-08-06T04:45:46;17.20;;;12.48;;
58372;SDS011;44177;43.356;27.672;2023-08-06T04:48:12;14.50;;;10.45;;
58372;SDS011;44177;43.356;27.672;2023-08-06T04:50:38;13.48;;;10.52;;
58372;SDS011;44177;43.356;27.672;2023-08-06T04:53:07;15.73;;;10.57;;
58372;SDS011;44177;43.356;27.672;2023-08-06T04:55:33;16.50;;;10.30;;
58372;SDS011;44177;43.356;27.672;2023-08-06T04:57:58;14.93;;;10.05;;
58372;SDS011;44177;43.356;27.672;2023-08-06T05:00:24;13.23;;;9.63;;
58372;SDS011;44177;43.356;27.672;2023-08-06T05:02:49;12.32;;;8.88;;
58372;SDS011;44177;43.356;27.672;2023-08-06T05:05:15;12.15;;;9.50;;
58372;SDS011;44177;43.356;27.672;2023-08-06T05:07:40;12.75;;;9.20;;
58372;SDS011;44177;43.356;27.672;2023-08-06T05:10:06;12.20;;;9.18;;
58372;SDS011;44177;43.356;27.672;2023-08-06T05:12:32;11.23;;;8.60;;
58372;SDS011;44177;43.356;27.672;2023-08-06T05:14:57;13.77;;;8.80;;
58372;SDS011;44177;43.356;27.672;2023-08-06T05:17:23;10.15;;;8.27;;
58372;SDS011;44177;43.356;27.672;2023-08-06T05:19:49;12.43;;;8.88;;
58372;SDS011;44177;43.356;27.672;2023-08-06T05:22:15;11.02;;;8.15;;
58372;SDS011;44177;43.356;27.672;2023-08-06T05:24:40;12.23;;;8.95;;
58372;SDS011;44177;43.356;27.672;2023-08-06T05:27:06;10.63;;;8.02;;
58372;SDS011;44177;43.356;27.672;2023-08-06T05:29:31;13.23;;;7.88;;
58372;SDS011;44177;43.356;27.672;2023-08-06T05:31:57;9.02;;;7.85;;
58372;SDS011;44177;43.356;27.672;2023-08-06T05:34:22;10.93;;;7.80;;
58372;SDS011;44177;43.356;27.672;2023-08-06T05:36:48;10.32;;;7.35;;
58372;SDS011;44177;43.356;27.672;2023-08-06T05:39:13;11.48;;;8.02;;
58372;SDS011;44177;43.356;27.672;2023-08-06T05:41:39;10.57;;;7.28;;
58372;SDS011;44177;43.356;27.672;2023-08-06T05:44:04;10.02;;;7.05;;
58372;SDS011;44177;43.356;27.672;2023-08-06T05:46:30;10.48;;;6.95;;
58372;SDS011;44177;43.356;27.672;2023-08-06T05:48:56;9.57;;;6.78;;
58372;SDS011;44177;43.356;27.672;2023-08-06T05:51:22;8.05;;;6.57;;
58372;SDS011;44177;43.356;27.672;2023-08-06T05:53:48;9.65;;;7.07;;
58372;SDS011;44177;43.356;27.672;2023-08-06T05:56:15;9.70;;;6.57;;
58372;SDS011;44177;43.356;27.672;2023-08-06T05:58:41;9.50;;;5.82;;
58372;SDS011;44177;43.356;27.672;2023-08-06T06:01:06;9.50;;;6.30;;
58372;SDS011;44177;43.356;27.672;2023-08-06T06:03:32;9.13;;;6.95;;
58372;SDS011;44177;43.356;27.672;2023-08-06T06:05:57;9.65;;;6.68;;
58372;SDS011;44177;43.356;27.672;2023-08-06T06:08:26;6.90;;;6.00;;
58372;SDS011;44177;43.356;27.672;2023-08-06T06:10:51;8.18;;;5.75;;
58372;SDS011;44177;43.356;27.672;2023-08-06T06:13:17;10.48;;;6.25;;
58372;SDS011;44177;43.356;27.672;2023-08-06T06:15:42;7.15;;;5.32;;
58372;SDS011;44177;43.356;27.672;2023-08-06T06:18:08;10.55;;;5.80;;
58372;SDS011;44177;43.356;27.672;2023-08-06T06:20:33;8.25;;;5.43;;
58372;SDS011;44177;43.356;27.672;2023-08-06T06:22:59;7.55;;;5.35;;
58372;SDS011;44177;43.356;27.672;2023-08-06T06:25:24;9.38;;;4.90;;
58372;SDS011;44177;43.356;27.672;2023-08-06T06:27:50;5.75;;;5.25;;
58372;SDS011;44177;43.356;27.672;2023-08-06T06:30:15;5.85;;;4.90;;
58372;SDS011;44177;43.356;27.672;2023-08-06T06:32:42;7.00;;;5.38;;
58372;SDS011;44177;43.356;27.672;2023-08-06T06:35:07;8.23;;;5.40;;
58372;SDS011;44177;43.356;27.672;2023-08-06T06:37:33;6.63;;;5.03;;
58372;SDS011;44177;43.356;27.672;2023-08-06T06:39:59;7.63;;;5.18;;
58372;SDS011;44177;43.356;27.672;2023-08-06T06:42:24;7.57;;;4.97;;
58372;SDS011;44177;43.356;27.672;2023-08-06T06:44:50;7.03;;;5.30;;
58372;SDS011;44177;43.356;27.672;2023-08-06T06:47:15;7.40;;;4.93;;
58372;SDS011;44177;43.356;27.672;2023-08-06T06:49:41;5.80;;;5.13;;
58372;SDS011;44177;43.356;27.672;2023-08-06T06:52:06;8.55;;;5.10;;
58372;SDS011;44177;43.356;27.672;2023-08-06T06:54:32;8.38;;;4.95;;
58372;SDS011;44177;43.356;27.672;2023-08-06T06:56:58;9.15;;;4.95;;
58372;SDS011;44177;43.356;27.672;2023-08-06T06:59:23;6.43;;;4.95;;
58372;SDS011;44177;43.356;27.672;2023-08-06T07:01:49;7.78;;;4.90;;
58372;SDS011;44177;43.356;27.672;2023-08-06T07:04:14;7.53;;;5.25;;
58372;SDS011;44177;43.356;27.672;2023-08-06T07:06:39;9.77;;;4.55;;
58372;SDS011;44177;43.356;27.672;2023-08-06T07:09:05;7.82;;;4.38;;
58372;SDS011;44177;43.356;27.672;2023-08-06T07:11:31;5.50;;;4.75;;
58372;SDS011;44177;43.356;27.672;2023-08-06T07:13:57;6.68;;;4.70;;
58372;SDS011;44177;43.356;27.672;2023-08-06T07:16:26;9.35;;;5.40;;
58372;SDS011;44177;43.356;27.672;2023-08-06T07:18:53;6.68;;;4.53;;
58372;SDS011;44177;43.356;27.672;2023-08-06T07:21:19;6.22;;;4.80;;
58372;SDS011;44177;43.356;27.672;2023-08-06T07:23:45;8.05;;;4.85;;
58372;SDS011;44177;43.356;27.672;2023-08-06T07:26:11;4.70;;;4.20;;
58372;SDS011;44177;43.356;27.672;2023-08-06T07:28:36;8.35;;;4.75;;
58372;SDS011;44177;43.356;27.672;2023-08-06T07:31:02;7.63;;;4.50;;
58372;SDS011;44177;43.356;27.672;2023-08-06T07:33:29;5.43;;;4.35;;
58372;SDS011;44177;43.356;27.672;2023-08-06T07:35:54;4.95;;;4.53;;
58372;SDS011;44177;43.356;27.672;2023-08-06T07:38:20;6.65;;;4.80;;
58372;SDS011;44177;43.356;27.672;2023-08-06T07:40:46;9.23;;;4.60;;
58372;SDS011;44177;43.356;27.672;2023-08-06T07:43:11;4.57;;;4.18;;
58372;SDS011;44177;43.356;27.672;2023-08-06T07:45:37;6.95;;;4.30;;
58372;SDS011;44177;43.356;27.672;2023-08-06T07:48:03;4.93;;;4.10;;
58372;SDS011;44177;43.356;27.672;2023-08-06T07:50:30;5.68;;;4.05;;
58372;SDS011;44177;43.356;27.672;2023-08-06T07:52:55;7.00;;;4.28;;
58372;SDS011;44177;43.356;27.672;2023-08-06T07:55:21;4.82;;;3.92;;
58372;SDS011;44177;43.356;27.672;2023-08-06T07:57:46;4.97;;;4.05;;
58372;SDS011;44177;43.356;27.672;2023-08-06T08:00:12;6.43;;;4.20;;
58372;SDS011;44177;43.356;27.672;2023-08-06T08:02:38;7.18;;;4.35;;
58372;SDS011;44177;43.356;27.672;2023-08-06T08:05:03;7.88;;;4.35;;
58372;SDS011;44177;43.356;27.672;2023-08-06T08:07:29;4.30;;;3.90;;
58372;SDS011;44177;43.356;27.672;2023-08-06T08:09:55;5.10;;;3.97;;
58372;SDS011;44177;43.356;27.672;2023-08-06T08:12:21;7.38;;;4.38;;
58372;SDS011;44177;43.356;27.672;2023-08-06T08:14:47;5.80;;;4.00;;
58372;SDS011;44177;43.356;27.672;2023-08-06T08:17:15;6.18;;;3.90;;
58372;SDS011;44177;43.356;27.672;2023-08-06T08:19:40;5.03;;;4.20;;
58372;SDS011;44177;43.356;27.672;2023-08-06T08:22:06;5.63;;;3.78;;
58372;SDS011;44177;43.356;27.672;2023-08-06T08:24:32;4.97;;;4.13;;
58372;SDS011;44177;43.356;27.672;2023-08-06T08:26:57;4.97;;;4.05;;
58372;SDS011;44177;43.356;27.672;2023-08-06T08:29:25;5.68;;;4.32;;
58372;SDS011;44177;43.356;27.672;2023-08-06T08:31:51;5.57;;;4.00;;
58372;SDS011;44177;43.356;27.672;2023-08-06T08:34:16;7.55;;;3.65;;
58372;SDS011;44177;43.356;27.672;2023-08-06T08:36:42;7.13;;;3.42;;
58372;SDS011;44177;43.356;27.672;2023-08-06T08:39:08;4.13;;;3.70;;
58372;SDS011;44177;43.356;27.672;2023-08-06T08:41:34;4.43;;;3.75;;
58372;SDS011;44177;43.356;27.672;2023-08-06T08:44:01;5.07;;;3.55;;
58372;SDS011;44177;43.356;27.672;2023-08-06T08:46:29;5.03;;;3.78;;
58372;SDS011;44177;43.356;27.672;2023-08-06T08:48:57;4.30;;;3.75;;
58372;SDS011;44177;43.356;27.672;2023-08-06T08:51:26;6.15;;;3.95;;
58372;SDS011;44177;43.356;27.672;2023-08-06T08:53:53;6.40;;;4.00;;
58372;SDS011;44177;43.356;27.672;2023-08-06T08:56:21;5.18;;;3.63;;
58372;SDS011;44177;43.356;27.672;2023-08-06T08:58:47;5.13;;;3.63;;
58372;SDS011;44177;43.356;27.672;2023-08-06T09:01:13;6.53;;;3.78;;
58372;SDS011;44177;43.356;27.672;2023-08-06T09:03:40;5.05;;;3.65;;
58372;SDS011;44177;43.356;27.672;2023-08-06T09:06:08;5.10;;;3.83;;
58372;SDS011;44177;43.356;27.672;2023-08-06T09:08:37;5.55;;;3.58;;
58372;SDS011;44177;43.356;27.672;2023-08-06T09:11:08;7.10;;;4.03;;
58372;SDS011;44177;43.356;27.672;2023-08-06T09:13:37;5.43;;;3.38;;
58372;SDS011;44177;43.356;27.672;2023-08-06T09:16:03;4.68;;;3.60;;
58372;SDS011;44177;43.356;27.672;2023-08-06T09:18:29;5.15;;;3.70;;
58372;SDS011;44177;43.356;27.672;2023-08-06T09:20:55;3.67;;;3.08;;
58372;SDS011;44177;43.356;27.672;2023-08-06T09:23:27;4.28;;;3.80;;
58372;SDS011;44177;43.356;27.672;2023-08-06T09:25:56;4.43;;;3.80;;
58372;SDS011;44177;43.356;27.672;2023-08-06T09:28:22;4.95;;;3.90;;
58372;SDS011;44177;43.356;27.672;2023-08-06T09:30:49;4.30;;;3.70;;
58372;SDS011;44177;43.356;27.672;2023-08-06T09:33:19;6.13;;;3.80;;
58372;SDS011;44177;43.356;27.672;2023-08-06T09:35:47;4.70;;;3.42;;
58372;SDS011;44177;43.356;27.672;2023-08-06T09:38:13;7.65;;;3.80;;
58372;SDS011;44177;43.356;27.672;2023-08-06T09:40:38;4.70;;;3.78;;
58372;SDS011;44177;43.356;27.672;2023-08-06T09:43:05;4.95;;;4.18;;
58372;SDS011;44177;43.356;27.672;2023-08-06T09:45:32;4.40;;;3.80;;
58372;SDS011;44177;43.356;27.672;2023-08-06T09:47:59;4.18;;;3.78;;
58372;SDS011;44177;43.356;27.672;2023-08-06T09:50:30;5.07;;;3.33;;
58372;SDS011;44177;43.356;27.672;2023-08-06T09:52:56;5.80;;;3.58;;
58372;SDS011;44177;43.356;27.672;2023-08-06T09:55:25;7.93;;;4.20;;
58372;SDS011;44177;43.356;27.672;2023-08-06T09:57:52;4.97;;;3.53;;
58372;SDS011;44177;43.356;27.672;2023-08-06T10:00:21;5.05;;;4.00;;
58372;SDS011;44177;43.356;27.672;2023-08-06T10:02:48;7.72;;;5.85;;
58372;SDS011;44177;43.356;27.672;2023-08-06T10:05:14;4.90;;;4.03;;
58372;SDS011;44177;43.356;27.672;2023-08-06T10:07:42;4.07;;;3.67;;
58372;SDS011;44177;43.356;27.672;2023-08-06T10:10:09;5.72;;;3.95;;
58372;SDS011;44177;43.356;27.672;2023-08-06T10:12:43;5.70;;;4.90;;
58372;SDS011;44177;43.356;27.672;2023-08-06T10:15:17;4.63;;;4.00;;
58372;SDS011;44177;43.356;27.672;2023-08-06T10:17:50;5.50;;;4.15;;
58372;SDS011;44177;43.356;27.672;2023-08-06T10:20:18;6.53;;;4.25;;
58372;SDS011;44177;43.356;27.672;2023-08-06T10:22:44;4.35;;;3.95;;
58372;SDS011;44177;43.356;27.672;2023-08-06T10:25:10;7.13;;;4.47;;
58372;SDS011;44177;43.356;27.672;2023-08-06T10:30:26;5.20;;;4.45;;
58372;SDS011;44177;43.356;27.672;2023-08-06T10:32:58;4.95;;;4.07;;
58372;SDS011;44177;43.356;27.672;2023-08-06T10:35:29;5.03;;;4.13;;
58372;SDS011;44177;43.356;27.672;2023-08-06T10:38:17;4.43;;;4.03;;
58372;SDS011;44177;43.356;27.672;2023-08-06T10:41:00;4.28;;;3.88;;
58372;SDS011;44177;43.356;27.672;2023-08-06T10:43:30;5.13;;;3.78;;
58372;SDS011;44177;43.356;27.672;2023-08-06T10:45:58;4.15;;;3.63;;
58372;SDS011;44177;43.356;27.672;2023-08-06T10:48:28;4.75;;;4.05;;
58372;SDS011;44177;43.356;27.672;2023-08-06T10:51:01;7.40;;;4.18;;
58372;SDS011;44177;43.356;27.672;2023-08-06T10:53:28;7.70;;;4.30;;
58372;SDS011;44177;43.356;27.672;2023-08-06T10:55:54;5.25;;;4.07;;
58372;SDS011;44177;43.356;27.672;2023-08-06T10:58:19;5.03;;;3.88;;
58372;SDS011;44177;43.356;27.672;2023-08-06T11:00:45;6.47;;;4.10;;
58372;SDS011;44177;43.356;27.672;2023-08-06T11:03:11;4.45;;;3.90;;
58372;SDS011;44177;43.356;27.672;2023-08-06T11:05:37;6.32;;;4.00;;
58372;SDS011;44177;43.356;27.672;2023-08-06T11:08:03;4.22;;;3.83;;
58372;SDS011;44177;43.356;27.672;2023-08-06T11:10:29;6.22;;;3.60;;
58372;SDS011;44177;43.356;27.672;2023-08-06T11:12:54;6.40;;;3.90;;
58372;SDS011;44177;43.356;27.672;2023-08-06T11:15:20;7.38;;;4.57;;
58372;SDS011;44177;43.356;27.672;2023-08-06T11:17:46;4.82;;;4.03;;
58372;SDS011;44177;43.356;27.672;2023-08-06T11:20:12;7.72;;;4.47;;
58372;SDS011;44177;43.356;27.672;2023-08-06T11:22:38;5.18;;;3.92;;
58372;SDS011;44177;43.356;27.672;2023-08-06T11:25:05;4.65;;;3.97;;
58372;SDS011;44177;43.356;27.672;2023-08-06T11:27:31;5.05;;;3.70;;
58372;SDS011;44177;43.356;27.672;2023-08-06T11:29:57;6.75;;;3.97;;
58372;SDS011;44177;43.356;27.672;2023-08-06T11:32:23;4.00;;;3.60;;
58372;SDS011;44177;43.356;27.672;2023-08-06T11:34:49;5.75;;;3.88;;
58372;SDS011;44177;43.356;27.672;2023-08-06T11:37:15;4.43;;;3.47;;
58372;SDS011;44177;43.356;27.672;2023-08-06T11:39:46;4.63;;;3.92;;
58372;SDS011;44177;43.356;27.672;2023-08-06T11:42:13;6.35;;;4.05;;
58372;SDS011;44177;43.356;27.672;2023-08-06T11:44:40;6.18;;;4.32;;
58372;SDS011;44177;43.356;27.672;2023-08-06T11:47:16;6.00;;;3.90;;
58372;SDS011;44177;43.356;27.672;2023-08-06T11:49:43;5.63;;;4.13;;
58372;SDS011;44177;43.356;27.672;2023-08-06T11:54:37;8.57;;;2.90;;
58372;SDS011;44177;43.356;27.672;2023-08-06T11:57:05;26.42;;;5.90;;
58372;SDS011;44177;43.356;27.672;2023-08-06T11:59:31;28.48;;;6.50;;
58372;SDS011;44177;43.356;27.672;2023-08-06T12:01:57;18.08;;;4.75;;
58372;SDS011;44177;43.356;27.672;2023-08-06T12:04:22;10.57;;;4.60;;
58372;SDS011;44177;43.356;27.672;2023-08-06T12:06:48;14.30;;;4.50;;
58372;SDS011;44177;43.356;27.672;2023-08-06T12:09:13;7.53;;;3.50;;
58372;SDS011;44177;43.356;27.672;2023-08-06T12:11:39;4.93;;;3.92;;
58372;SDS011;44177;43.356;27.672;2023-08-06T12:14:04;5.30;;;3.80;;
58372;SDS011;44177;43.356;27.672;2023-08-06T12:16:30;6.43;;;4.30;;
58372;SDS011;44177;43.356;27.672;2023-08-06T12:18:56;6.28;;;4.95;;
58372;SDS011;44177;43.356;27.672;2023-08-06T12:21:21;8.07;;;4.50;;
58372;SDS011;44177;43.356;27.672;2023-08-06T12:23:47;5.18;;;4.50;;
58372;SDS011;44177;43.356;27.672;2023-08-06T12:26:12;6.18;;;4.32;;
58372;SDS011;44177;43.356;27.672;2023-08-06T12:28:38;11.40;;;5.63;;
58372;SDS011;44177;43.356;27.672;2023-08-06T12:31:03;7.47;;;5.13;;
58372;SDS011;44177;43.356;27.672;2023-08-06T12:33:29;7.72;;;4.95;;
58372;SDS011;44177;43.356;27.672;2023-08-06T12:35:54;5.85;;;4.03;;
58372;SDS011;44177;43.356;27.672;2023-08-06T12:38:20;5.15;;;3.72;;
58372;SDS011;44177;43.356;27.672;2023-08-06T12:40:46;6.32;;;4.60;;
58372;SDS011;44177;43.356;27.672;2023-08-06T12:43:11;5.88;;;3.97;;
58372;SDS011;44177;43.356;27.672;2023-08-06T12:45:37;5.95;;;3.80;;
58372;SDS011;44177;43.356;27.672;2023-08-06T12:48:02;6.93;;;3.42;;
58372;SDS011;44177;43.356;27.672;2023-08-06T12:50:29;3.80;;;3.45;;
58372;SDS011;44177;43.356;27.672;2023-08-06T12:52:54;5.15;;;3.67;;
58372;SDS011;44177;43.356;27.672;2023-08-06T12:55:20;3.47;;;3.10;;
58372;SDS011;44177;43.356;27.672;2023-08-06T12:57:45;2.95;;;2.70;;
58372;SDS011;44177;43.356;27.672;2023-08-06T13:00:11;4.95;;;3.67;;
58372;SDS011;44177;43.356;27.672;2023-08-06T13:02:37;3.38;;;3.08;;
58372;SDS011;44177;43.356;27.672;2023-08-06T13:05:02;2.60;;;2.40;;
58372;SDS011;44177;43.356;27.672;2023-08-06T13:07:30;2.90;;;2.70;;
58372;SDS011;44177;43.356;27.672;2023-08-06T13:09:56;5.50;;;3.03;;
58372;SDS011;44177;43.356;27.672;2023-08-06T13:12:22;3.17;;;2.30;;
58372;SDS011;44177;43.356;27.672;2023-08-06T13:14:48;2.42;;;2.22;;
58372;SDS011;44177;43.356;27.672;2023-08-06T13:17:14;4.30;;;2.47;;
58372;SDS011;44177;43.356;27.672;2023-08-06T13:19:39;3.38;;;2.35;;
58372;SDS011;44177;43.356;27.672;2023-08-06T13:22:05;4.97;;;2.65;;
58372;SDS011;44177;43.356;27.672;2023-08-06T13:24:33;3.83;;;2.88;;
58372;SDS011;44177;43.356;27.672;2023-08-06T13:26:59;3.30;;;2.53;;
58372;SDS011;44177;43.356;27.672;2023-08-06T13:29:25;2.90;;;2.40;;
58372;SDS011;44177;43.356;27.672;2023-08-06T13:31:52;2.40;;;2.20;;
58372;SDS011;44177;43.356;27.672;2023-08-06T13:34:18;3.55;;;2.17;;
58372;SDS011;44177;43.356;27.672;2023-08-06T13:36:43;4.28;;;2.58;;
58372;SDS011;44177;43.356;27.672;2023-08-06T13:39:09;3.05;;;2.22;;
58372;SDS011;44177;43.356;27.672;2023-08-06T13:41:35;2.33;;;2.13;;
58372;SDS011;44177;43.356;27.672;2023-08-06T13:44:02;3.88;;;2.45;;
58372;SDS011;44177;43.356;27.672;2023-08-06T13:46:28;2.75;;;2.20;;
58372;SDS011;44177;43.356;27.672;2023-08-06T13:48:53;3.47;;;2.70;;
58372;SDS011;44177;43.356;27.672;2023-08-06T13:51:19;4.63;;;2.83;;
58372;SDS011;44177;43.356;27.672;2023-08-06T13:53:44;5.45;;;2.60;;
58372;SDS011;44177;43.356;27.672;2023-08-06T13:56:11;2.97;;;2.58;;
58372;SDS011;44177;43.356;27.672;2023-08-06T13:58:37;3.65;;;2.90;;
58372;SDS011;44177;43.356;27.672;2023-08-06T14:01:05;3.70;;;3.40;;
58372;SDS011;44177;43.356;27.672;2023-08-06T14:03:30;4.15;;;3.50;;
58372;SDS011;44177;43.356;27.672;2023-08-06T14:05:56;4.55;;;4.15;;
58372;SDS011;44177;43.356;27.672;2023-08-06T14:08:22;5.93;;;4.82;;
58372;SDS011;44177;43.356;27.672;2023-08-06T14:10:49;7.60;;;3.83;;
58372;SDS011;44177;43.356;27.672;2023-08-06T14:13:15;5.25;;;4.00;;
58372;SDS011;44177;43.356;27.672;2023-08-06T14:15:41;5.50;;;4.75;;
58372;SDS011;44177;43.356;27.672;2023-08-06T14:18:07;5.80;;;5.13;;
58372;SDS011;44177;43.356;27.672;2023-08-06T14:20:35;5.72;;;5.00;;
58372;SDS011;44177;43.356;27.672;2023-08-06T14:23:01;9.48;;;5.10;;
58372;SDS011;44177;43.356;27.672;2023-08-06T14:25:27;5.38;;;4.88;;
58372;SDS011;44177;43.356;27.672;2023-08-06T14:27:52;6.97;;;5.78;;